createdAt,value
2023-05-05T00:00:51.668Z,12.83
2023-05-05T00:01:53.844Z,12.77
2023-05-05T00:02:56.020Z,12.76
2023-05-05T00:03:58.293Z,12.76
2023-05-05T00:05:00.440Z,12.76
2023-05-05T00:06:02.885Z,12.78
2023-05-05T00:07:05.029Z,12.76
2023-05-05T00:08:07.228Z,12.74
2023-05-05T00:09:09.353Z,12.71
2023-05-05T00:10:11.545Z,12.62
2023-05-05T00:11:13.730Z,12.61
2023-05-05T00:12:15.892Z,12.58
2023-05-05T00:13:20.131Z,12.55
2023-05-05T00:14:22.249Z,12.51
2023-05-05T00:15:24.409Z,12.46
2023-05-05T00:16:27.006Z,12.49
2023-05-05T00:17:29.137Z,12.48
2023-05-05T00:18:31.522Z,12.47
2023-05-05T00:19:33.646Z,12.47
2023-05-05T00:20:35.893Z,12.50
2023-05-05T00:21:38.005Z,12.46
2023-05-05T00:22:40.092Z,12.46
2023-05-05T00:23:42.266Z,12.51
2023-05-05T00:24:44.351Z,12.47
2023-05-05T00:25:46.972Z,12.43
2023-05-05T00:26:49.097Z,12.41
2023-05-05T00:27:51.169Z,12.43
2023-05-05T00:28:53.320Z,12.43
2023-05-05T00:29:55.470Z,12.41
2023-05-05T00:30:57.610Z,12.40
2023-05-05T00:31:59.793Z,12.40
2023-05-05T00:33:02.055Z,12.34
2023-05-05T00:34:04.248Z,12.32
2023-05-05T00:35:07.007Z,12.31
2023-05-05T00:36:09.760Z,12.31
2023-05-05T00:37:12.330Z,12.31
2023-05-05T00:38:14.430Z,12.30
2023-05-05T00:39:16.551Z,12.35
2023-05-05T00:40:19.012Z,12.29
2023-05-05T00:41:21.082Z,12.23
2023-05-05T00:42:23.199Z,12.20
2023-05-05T00:43:25.324Z,12.21
2023-05-05T00:44:37.459Z,12.13
2023-05-05T00:45:42.848Z,12.11
2023-05-05T00:46:45.655Z,12.17
2023-05-05T00:47:49.885Z,12.16
2023-05-05T00:48:52.627Z,12.09
2023-05-05T00:49:54.802Z,12.04
2023-05-05T00:50:57.119Z,12.03
2023-05-05T00:51:59.722Z,11.99
2023-05-05T00:53:03.591Z,11.96
2023-05-05T00:54:05.993Z,12.00
2023-05-05T00:55:08.603Z,12.03
2023-05-05T00:56:12.906Z,12.00
2023-05-05T00:57:15.055Z,11.97
2023-05-05T00:58:17.548Z,11.93
2023-05-05T00:59:19.768Z,11.89
2023-05-05T01:00:22.112Z,11.90
2023-05-05T01:01:24.278Z,11.92
2023-05-05T01:02:26.734Z,11.89
2023-05-05T01:03:28.959Z,11.90
2023-05-05T01:04:31.269Z,11.83
2023-05-05T01:05:42.574Z,11.79
2023-05-05T01:07:03.954Z,11.81
2023-05-05T01:08:36.716Z,11.84
2023-05-05T01:10:18.042Z,11.77
2023-05-05T01:11:44.078Z,11.72
2023-05-05T01:12:55.130Z,11.73
2023-05-05T01:13:57.133Z,11.67
2023-05-05T01:15:11.055Z,11.68
2023-05-05T01:16:18.928Z,11.64
2023-05-05T01:17:24.770Z,11.63
2023-05-05T01:18:40.748Z,11.62
2023-05-05T01:19:59.631Z,11.61
2023-05-05T01:21:10.647Z,11.57
2023-05-05T01:22:13.435Z,11.58
2023-05-05T01:23:28.318Z,11.59
2023-05-05T01:24:45.721Z,11.53
2023-05-05T01:26:09.024Z,11.54
2023-05-05T01:27:27.951Z,11.50
2023-05-05T01:28:51.764Z,11.51
2023-05-05T01:30:16.872Z,11.50
2023-05-05T01:31:38.894Z,11.49
2023-05-05T01:32:49.153Z,11.48
2023-05-05T01:33:59.156Z,11.46
2023-05-05T01:35:09.998Z,11.38
2023-05-05T01:36:22.737Z,11.37
2023-05-05T01:37:45.605Z,11.36
2023-05-05T01:38:49.096Z,11.35
2023-05-05T01:39:53.793Z,11.39
2023-05-05T01:40:59.370Z,11.37
2023-05-05T01:42:06.834Z,11.34
2023-05-05T01:43:10.544Z,11.32
2023-05-05T01:44:14.848Z,11.28
2023-05-05T01:45:19.107Z,11.28
2023-05-05T01:46:24.004Z,11.28
2023-05-05T01:47:26.646Z,11.26
2023-05-05T01:48:30.049Z,11.25
2023-05-05T01:49:33.131Z,11.25
2023-05-05T01:50:36.928Z,11.28
2023-05-05T01:51:39.977Z,11.27
2023-05-05T01:52:42.522Z,11.19
2023-05-05T01:53:47.211Z,11.15
2023-05-05T01:54:49.213Z,11.19
2023-05-05T01:55:52.441Z,11.21
2023-05-05T01:56:56.452Z,11.25
2023-05-05T01:57:58.876Z,11.25
2023-05-05T01:59:01.994Z,11.22
2023-05-05T02:00:04.772Z,11.21
2023-05-05T02:01:07.135Z,11.17
2023-05-05T02:02:10.770Z,11.15
2023-05-05T02:03:13.960Z,11.11
2023-05-05T02:04:18.032Z,11.07
2023-05-05T02:05:22.878Z,11.07
2023-05-05T02:06:26.978Z,11.04
2023-05-05T02:07:29.918Z,11.00
2023-05-05T02:08:32.911Z,11.00
2023-05-05T02:09:36.358Z,10.99
2023-05-05T02:10:40.978Z,10.99
2023-05-05T02:11:43.039Z,11.01
2023-05-05T02:12:45.736Z,10.98
2023-05-05T02:13:49.483Z,10.97
2023-05-05T02:14:52.359Z,10.94
2023-05-05T02:15:54.952Z,10.92
2023-05-05T02:16:57.890Z,10.92
2023-05-05T02:18:00.609Z,10.91
2023-05-05T02:19:05.657Z,10.93
2023-05-05T02:20:10.822Z,10.90
2023-05-05T02:21:14.837Z,10.86
2023-05-05T02:22:17.017Z,10.84
2023-05-05T02:23:19.353Z,10.83
2023-05-05T02:24:21.574Z,10.82
2023-05-05T02:25:26.160Z,10.81
2023-05-05T02:26:30.391Z,10.84
2023-05-05T02:27:34.951Z,10.86
2023-05-05T02:28:48.883Z,10.89
2023-05-05T02:29:53.312Z,10.93
2023-05-05T02:30:59.835Z,10.90
2023-05-05T02:32:06.322Z,10.86
2023-05-05T02:33:10.787Z,10.83
2023-05-05T02:34:13.756Z,10.80
2023-05-05T02:35:19.137Z,10.79
2023-05-05T02:36:23.062Z,10.81
2023-05-05T02:37:27.786Z,10.83
2023-05-05T02:38:29.928Z,10.82
2023-05-05T02:39:38.717Z,10.80
2023-05-05T02:40:42.593Z,10.79
2023-05-05T02:41:47.401Z,10.77
2023-05-05T02:42:53.572Z,10.78
2023-05-05T02:43:58.058Z,10.77
2023-05-05T02:45:04.194Z,10.75
2023-05-05T02:46:06.766Z,10.74
2023-05-05T02:47:09.141Z,10.73
2023-05-05T02:48:13.100Z,10.71
2023-05-05T02:49:15.627Z,10.69
2023-05-05T02:50:18.122Z,10.71
2023-05-05T02:51:20.287Z,10.72
2023-05-05T02:52:22.489Z,10.69
2023-05-05T02:53:25.836Z,10.71
2023-05-05T02:54:28.177Z,10.71
2023-05-05T02:55:37.938Z,10.71
2023-05-05T02:56:44.445Z,10.69
2023-05-05T02:58:06.896Z,10.70
2023-05-05T02:59:10.191Z,10.69
2023-05-05T03:00:28.412Z,10.62
2023-05-05T03:01:39.507Z,10.61
2023-05-05T03:02:47.250Z,10.60
2023-05-05T03:04:04.953Z,10.59
2023-05-05T03:05:12.973Z,10.57
2023-05-05T03:06:17.738Z,10.58
2023-05-05T03:07:25.608Z,10.55
2023-05-05T03:08:43.094Z,10.52
2023-05-05T03:09:52.024Z,10.53
2023-05-05T03:10:59.892Z,10.62
2023-05-05T03:12:04.713Z,10.61
2023-05-05T03:13:10.246Z,10.62
2023-05-05T03:14:13.939Z,10.62
2023-05-05T03:15:16.192Z,10.62
2023-05-05T03:16:18.700Z,10.59
2023-05-05T03:17:22.606Z,10.61
2023-05-05T03:18:25.387Z,10.59
2023-05-05T03:19:28.808Z,10.57
2023-05-05T03:20:31.240Z,10.51
2023-05-05T03:21:33.690Z,10.50
2023-05-05T03:22:37.780Z,10.48
2023-05-05T03:23:40.125Z,10.49
2023-05-05T03:24:42.346Z,10.51
2023-05-05T03:25:46.376Z,10.47
2023-05-05T03:26:49.691Z,10.42
2023-05-05T03:27:51.977Z,10.41
2023-05-05T03:28:54.143Z,10.42
2023-05-05T03:29:56.552Z,10.45
2023-05-05T03:30:58.812Z,10.40
2023-05-05T03:32:01.543Z,10.44
2023-05-05T03:33:03.956Z,10.47
2023-05-05T03:34:06.250Z,10.46
2023-05-05T03:35:08.702Z,10.48
2023-05-05T03:36:11.007Z,10.45
2023-05-05T03:37:13.141Z,10.46
2023-05-05T03:38:15.380Z,10.45
2023-05-05T03:39:18.832Z,10.43
2023-05-05T03:40:27.178Z,10.40
2023-05-05T03:41:34.966Z,10.48
2023-05-05T03:42:37.087Z,10.45
2023-05-05T03:43:39.444Z,10.45
2023-05-05T03:44:41.530Z,10.44
2023-05-05T03:45:43.665Z,10.43
2023-05-05T03:46:45.844Z,10.45
2023-05-05T03:47:48.077Z,10.48
2023-05-05T03:48:50.444Z,10.45
2023-05-05T03:49:52.496Z,10.49
2023-05-05T03:50:54.586Z,10.54
2023-05-05T03:51:56.700Z,10.50
2023-05-05T03:52:58.819Z,10.52
2023-05-05T03:54:01.057Z,10.56
2023-05-05T03:55:03.220Z,10.60
2023-05-05T03:56:05.598Z,10.65
2023-05-05T03:57:07.741Z,10.65
2023-05-05T03:58:09.863Z,10.63
2023-05-05T03:59:12.023Z,10.65
2023-05-05T04:00:15.214Z,10.66
2023-05-05T04:01:17.302Z,10.65
2023-05-05T04:02:19.543Z,10.66
2023-05-05T04:03:21.900Z,10.70
2023-05-05T04:04:24.172Z,10.75
2023-05-05T04:05:26.432Z,10.79
2023-05-05T04:06:28.614Z,10.86
2023-05-05T04:07:30.726Z,10.90
2023-05-05T04:08:32.844Z,10.94
2023-05-05T04:09:35.005Z,10.96
2023-05-05T04:10:37.078Z,11.06
2023-05-05T04:11:39.223Z,11.05
2023-05-05T04:12:41.437Z,11.04
2023-05-05T04:13:43.540Z,10.99
2023-05-05T04:14:45.696Z,11.08
2023-05-05T04:15:47.824Z,11.06
2023-05-05T04:16:49.965Z,11.11
2023-05-05T04:17:52.237Z,11.16
2023-05-05T04:18:55.333Z,11.16
2023-05-05T04:19:57.415Z,11.19
2023-05-05T04:20:59.531Z,11.26
2023-05-05T04:22:01.644Z,11.23
2023-05-05T04:23:03.761Z,11.26
2023-05-05T04:24:06.256Z,11.32
2023-05-05T04:25:08.348Z,11.37
2023-05-05T04:26:10.754Z,11.40
2023-05-05T04:27:12.827Z,11.39
2023-05-05T04:28:14.971Z,11.36
2023-05-05T04:29:17.477Z,11.37
2023-05-05T04:30:19.680Z,11.34
2023-05-05T04:31:21.818Z,11.33
2023-05-05T04:32:23.988Z,11.34
2023-05-05T04:33:26.201Z,11.37
2023-05-05T04:34:28.311Z,11.36
2023-05-05T04:35:30.713Z,11.34
2023-05-05T04:36:32.781Z,11.37
2023-05-05T04:37:34.876Z,11.40
2023-05-05T04:38:37.020Z,11.41
2023-05-05T04:39:39.165Z,11.48
2023-05-05T04:40:41.402Z,11.52
2023-05-05T04:41:43.529Z,11.53
2023-05-05T04:42:45.894Z,11.66
2023-05-05T04:43:47.980Z,11.63
2023-05-05T04:44:50.048Z,11.70
2023-05-05T04:45:55.802Z,11.72
2023-05-05T04:46:58.154Z,11.75
2023-05-05T04:48:00.281Z,11.77
2023-05-05T04:49:05.158Z,11.83
2023-05-05T04:50:08.182Z,11.89
2023-05-05T04:51:10.505Z,11.89
2023-05-05T04:52:13.601Z,11.93
2023-05-05T04:53:15.753Z,11.94
2023-05-05T04:54:17.928Z,11.93
2023-05-05T04:55:20.094Z,11.95
2023-05-05T04:56:22.182Z,11.92
2023-05-05T04:57:24.279Z,12.00
2023-05-05T04:58:26.733Z,12.01
2023-05-05T04:59:28.812Z,12.00
2023-05-05T05:00:31.089Z,12.07
2023-05-05T05:01:33.262Z,12.06
2023-05-05T05:02:35.929Z,12.05
2023-05-05T05:03:38.140Z,12.08
2023-05-05T05:04:40.721Z,12.04
2023-05-05T05:05:42.807Z,12.01
2023-05-05T05:06:46.082Z,11.98
2023-05-05T05:07:48.325Z,12.06
2023-05-05T05:08:50.526Z,12.10
2023-05-05T05:09:52.647Z,12.18
2023-05-05T05:10:54.755Z,12.21
2023-05-05T05:12:01.056Z,12.28
2023-05-05T05:13:04.453Z,12.30
2023-05-05T05:14:06.895Z,12.36
2023-05-05T05:15:09.769Z,12.41
2023-05-05T05:16:11.952Z,12.43
2023-05-05T05:17:14.211Z,12.45
2023-05-05T05:18:16.737Z,12.49
2023-05-05T05:19:18.946Z,12.54
2023-05-05T05:20:21.181Z,12.54
2023-05-05T05:21:23.288Z,12.56
2023-05-05T05:22:25.387Z,12.57
2023-05-05T05:23:27.540Z,12.59
2023-05-05T05:24:30.066Z,12.59
2023-05-05T05:25:32.199Z,12.61
2023-05-05T05:26:34.337Z,12.69
2023-05-05T05:27:36.616Z,12.71
2023-05-05T05:28:38.754Z,12.78
2023-05-05T05:29:40.830Z,12.83
2023-05-05T05:30:43.039Z,12.89
2023-05-05T05:31:45.149Z,12.82
2023-05-05T05:32:47.349Z,12.92
2023-05-05T05:33:49.470Z,13.00
2023-05-05T05:34:51.709Z,13.06
2023-05-05T05:35:53.839Z,13.13
2023-05-05T05:36:55.966Z,13.17
2023-05-05T05:37:58.123Z,13.19
2023-05-05T05:39:00.231Z,13.24
2023-05-05T05:40:02.307Z,13.30
2023-05-05T05:41:09.962Z,13.36
2023-05-05T05:42:12.026Z,13.33
2023-05-05T05:43:14.181Z,13.32
2023-05-05T05:44:16.274Z,13.37
2023-05-05T05:45:18.365Z,13.52
2023-05-05T05:46:21.199Z,13.59
2023-05-05T05:47:23.871Z,13.65
2023-05-05T05:48:28.575Z,13.68
2023-05-05T05:49:30.556Z,13.77
2023-05-05T05:50:32.544Z,13.87
2023-05-05T05:51:34.648Z,13.89
2023-05-05T05:52:36.959Z,13.86
2023-05-05T05:53:39.152Z,13.89
2023-05-05T05:54:41.292Z,13.87
2023-05-05T05:55:46.199Z,13.98
2023-05-05T05:56:48.298Z,14.08
2023-05-05T05:57:50.366Z,14.20
2023-05-05T05:58:52.645Z,14.23
2023-05-05T05:59:55.069Z,14.21
2023-05-05T06:00:59.179Z,14.24
2023-05-05T06:02:01.714Z,14.31
2023-05-05T06:03:04.041Z,14.29
2023-05-05T06:04:06.303Z,14.34
2023-05-05T06:05:08.960Z,14.38
2023-05-05T06:06:11.076Z,14.40
2023-05-05T06:07:13.338Z,14.45
2023-05-05T06:08:15.421Z,14.48
2023-05-05T06:09:17.545Z,14.52
2023-05-05T06:10:29.862Z,14.45
2023-05-05T06:11:33.265Z,14.46
2023-05-05T06:12:35.403Z,14.45
2023-05-05T06:13:37.646Z,14.50
2023-05-05T06:14:39.749Z,14.53
2023-05-05T06:15:41.897Z,14.58
2023-05-05T06:16:44.340Z,14.62
2023-05-05T06:17:46.592Z,14.62
2023-05-05T06:18:48.813Z,14.69
2023-05-05T06:19:51.101Z,14.67
2023-05-05T06:20:54.071Z,14.69
2023-05-05T06:21:56.292Z,14.71
2023-05-05T06:22:58.468Z,14.79
2023-05-05T06:24:00.614Z,14.87
2023-05-05T06:25:02.789Z,14.96
2023-05-05T06:26:04.891Z,14.98
2023-05-05T06:27:06.964Z,15.00
2023-05-05T06:28:09.145Z,14.98
2023-05-05T06:29:12.418Z,15.04
2023-05-05T06:30:14.861Z,15.01
2023-05-05T06:31:17.496Z,15.02
2023-05-05T06:32:20.427Z,15.03
2023-05-05T06:33:22.534Z,15.08
2023-05-05T06:34:24.711Z,15.12
2023-05-05T06:35:26.894Z,15.20
2023-05-05T06:36:29.052Z,15.24
2023-05-05T06:37:31.161Z,15.32
2023-05-05T06:38:33.387Z,15.23
2023-05-05T06:39:35.512Z,15.36
2023-05-05T06:40:37.581Z,15.37
2023-05-05T06:41:39.643Z,15.39
2023-05-05T06:42:41.791Z,15.47
2023-05-05T06:43:45.225Z,15.61
2023-05-05T06:44:47.279Z,15.70
2023-05-05T06:45:49.527Z,15.70
2023-05-05T06:46:51.771Z,15.73
2023-05-05T06:47:53.981Z,15.71
2023-05-05T06:48:56.127Z,15.74
2023-05-05T06:49:58.210Z,15.83
2023-05-05T06:51:00.352Z,15.82
2023-05-05T06:52:03.116Z,15.89
2023-05-05T06:53:05.189Z,15.85
2023-05-05T06:54:07.677Z,15.81
2023-05-05T06:55:09.972Z,15.89
2023-05-05T06:56:12.085Z,16.06
2023-05-05T06:57:14.195Z,16.09
2023-05-05T06:58:16.388Z,16.10
2023-05-05T06:59:18.541Z,16.09
2023-05-05T07:00:22.167Z,16.15
2023-05-05T07:01:24.438Z,16.37
2023-05-05T07:02:27.064Z,16.45
2023-05-05T07:03:29.370Z,16.35
2023-05-05T07:04:31.635Z,16.49
2023-05-05T07:05:33.753Z,16.56
2023-05-05T07:06:35.911Z,16.52
2023-05-05T07:07:38.895Z,16.58
2023-05-05T07:08:41.101Z,16.63
2023-05-05T07:09:45.025Z,16.65
2023-05-05T07:10:47.381Z,16.73
2023-05-05T07:11:49.566Z,16.78
2023-05-05T07:12:52.567Z,16.85
2023-05-05T07:13:54.885Z,16.86
2023-05-05T07:14:57.367Z,16.90
2023-05-05T07:15:59.891Z,16.96
2023-05-05T07:17:01.994Z,17.02
2023-05-05T07:18:04.325Z,17.10
2023-05-05T07:19:06.602Z,17.13
2023-05-05T07:20:09.720Z,17.24
2023-05-05T07:21:12.214Z,17.25
2023-05-05T07:22:14.311Z,16.95
2023-05-05T07:23:16.418Z,16.95
2023-05-05T07:24:18.525Z,16.99
2023-05-05T07:25:21.232Z,16.91
2023-05-05T07:26:23.544Z,16.76
2023-05-05T07:27:25.977Z,16.74
2023-05-05T07:28:28.100Z,16.71
2023-05-05T07:29:30.212Z,16.78
2023-05-05T07:30:32.278Z,16.69
2023-05-05T07:31:34.472Z,16.81
2023-05-05T07:32:36.667Z,16.91
2023-05-05T07:33:38.850Z,16.89
2023-05-05T07:34:41.014Z,16.96
2023-05-05T07:35:43.135Z,17.09
2023-05-05T07:36:45.327Z,17.17
2023-05-05T07:37:47.880Z,17.25
2023-05-05T07:38:50.016Z,17.14
2023-05-05T07:39:52.206Z,17.15
2023-05-05T07:40:54.342Z,16.98
2023-05-05T07:41:56.467Z,17.09
2023-05-05T07:42:58.557Z,17.26
2023-05-05T07:44:01.242Z,17.41
2023-05-05T07:45:04.762Z,17.53
2023-05-05T07:46:07.247Z,17.66
2023-05-05T07:47:09.399Z,17.55
2023-05-05T07:48:11.603Z,17.58
2023-05-05T07:49:13.765Z,17.59
2023-05-05T07:50:16.286Z,17.46
2023-05-05T07:51:18.411Z,17.35
2023-05-05T07:52:30.070Z,17.47
2023-05-05T07:53:41.507Z,17.62
2023-05-05T07:54:45.252Z,17.53
2023-05-05T07:55:47.415Z,17.64
2023-05-05T07:56:49.583Z,17.71
2023-05-05T07:57:51.765Z,17.82
2023-05-05T07:58:53.938Z,17.96
2023-05-05T07:59:56.019Z,18.01
2023-05-05T08:00:58.121Z,18.05
2023-05-05T08:02:00.233Z,18.06
2023-05-05T08:03:02.493Z,17.96
2023-05-05T08:04:05.385Z,17.91
2023-05-05T08:05:08.229Z,17.95
2023-05-05T08:06:10.800Z,18.08
2023-05-05T08:07:12.931Z,18.13
2023-05-05T08:08:15.462Z,18.12
2023-05-05T08:09:17.679Z,18.13
2023-05-05T08:10:22.315Z,18.22
2023-05-05T08:11:27.175Z,18.15
2023-05-05T08:12:30.526Z,18.28
2023-05-05T08:13:32.710Z,18.30
2023-05-05T08:14:34.920Z,18.39
2023-05-05T08:15:37.157Z,18.36
2023-05-05T08:16:39.346Z,18.49
2023-05-05T08:17:49.176Z,18.64
2023-05-05T08:18:52.218Z,18.74
2023-05-05T08:19:54.504Z,18.69
2023-05-05T08:20:56.616Z,18.79
2023-05-05T08:22:01.054Z,18.75
2023-05-05T08:23:03.600Z,18.73
2023-05-05T08:24:05.752Z,18.42
2023-05-05T08:25:08.512Z,18.26
2023-05-05T08:26:10.780Z,18.40
2023-05-05T08:27:14.066Z,18.47
2023-05-05T08:28:16.232Z,18.34
2023-05-05T08:29:18.374Z,18.39
2023-05-05T08:30:21.460Z,18.67
2023-05-05T08:31:23.624Z,18.86
2023-05-05T08:32:27.296Z,18.74
2023-05-05T08:33:31.391Z,18.82
2023-05-05T08:34:33.550Z,19.00
2023-05-05T08:35:35.709Z,19.09
2023-05-05T08:36:37.908Z,19.24
2023-05-05T08:37:40.086Z,19.41
2023-05-05T08:38:42.168Z,19.36
2023-05-05T08:39:44.736Z,19.31
2023-05-05T08:40:46.954Z,19.31
2023-05-05T08:41:49.188Z,19.44
2023-05-05T08:42:51.300Z,19.47
2023-05-05T08:43:53.504Z,19.39
2023-05-05T08:44:57.269Z,19.32
2023-05-05T08:46:00.534Z,19.33
2023-05-05T08:47:02.854Z,19.22
2023-05-05T08:48:05.591Z,19.31
2023-05-05T08:49:11.257Z,19.48
2023-05-05T08:50:13.701Z,19.33
2023-05-05T08:51:19.937Z,19.35
2023-05-05T08:52:24.207Z,19.48
2023-05-05T08:53:41.449Z,19.65
2023-05-05T08:54:48.138Z,19.70
2023-05-05T08:55:55.482Z,19.46
2023-05-05T08:56:59.752Z,19.59
2023-05-05T08:58:04.223Z,19.63
2023-05-05T08:59:06.667Z,19.57
2023-05-05T09:00:10.738Z,19.48
2023-05-05T09:01:13.272Z,19.49
2023-05-05T09:02:16.419Z,19.24
2023-05-05T09:03:18.764Z,19.21
2023-05-05T09:04:21.130Z,19.88
2023-05-05T09:05:23.452Z,20.08
2023-05-05T09:06:27.436Z,20.33
2023-05-05T09:07:30.099Z,21.11
2023-05-05T09:08:33.203Z,21.18
2023-05-05T09:09:35.873Z,21.51
2023-05-05T09:10:41.111Z,21.66
2023-05-05T09:11:43.989Z,22.37
2023-05-05T09:12:46.252Z,22.04
2023-05-05T09:13:48.451Z,22.01
2023-05-05T09:16:09.971Z,22.91
2023-05-05T09:17:25.436Z,22.99
2023-05-05T09:18:27.681Z,23.39
2023-05-05T09:19:29.813Z,23.72
2023-05-05T09:20:36.078Z,23.91
2023-05-05T09:21:46.798Z,24.29
2023-05-05T09:22:48.970Z,24.82
2023-05-05T09:24:18.716Z,25.19
2023-05-05T09:25:20.781Z,25.48
2023-05-05T09:26:23.291Z,25.88
2023-05-05T09:27:25.637Z,25.56
2023-05-05T09:28:28.011Z,25.03
2023-05-05T09:29:30.147Z,24.82
2023-05-05T09:30:32.509Z,25.00
2023-05-05T09:31:35.916Z,25.42
2023-05-05T09:32:46.066Z,25.22
2023-05-05T09:33:48.538Z,25.04
2023-05-05T09:35:01.077Z,24.57
2023-05-05T09:36:03.473Z,24.16
2023-05-05T09:37:06.273Z,23.58
2023-05-05T09:38:12.118Z,23.77
2023-05-05T09:39:16.906Z,24.05
2023-05-05T09:40:20.586Z,23.96
2023-05-05T09:41:39.220Z,23.58
2023-05-05T09:42:41.502Z,23.49
2023-05-05T09:43:52.502Z,23.16
2023-05-05T09:44:54.853Z,23.79
2023-05-05T09:46:07.719Z,24.44
2023-05-05T09:47:22.137Z,24.95
2023-05-05T09:48:30.647Z,25.01
2023-05-05T09:49:32.860Z,24.76
2023-05-05T09:50:44.748Z,24.62
2023-05-05T09:51:47.582Z,24.63
2023-05-05T09:52:57.365Z,24.58
2023-05-05T09:53:59.541Z,24.46
2023-05-05T09:55:01.926Z,24.68
2023-05-05T09:56:04.312Z,25.23
2023-05-05T09:57:06.714Z,25.56
2023-05-05T09:58:23.911Z,25.73
2023-05-05T09:59:26.188Z,25.52
2023-05-05T10:00:46.670Z,24.71
2023-05-05T10:01:50.087Z,23.90
2023-05-05T10:02:52.337Z,24.06
2023-05-05T10:03:54.615Z,24.84
2023-05-05T10:05:10.262Z,25.22
2023-05-05T10:06:12.387Z,25.37
2023-05-05T10:07:23.314Z,25.52
2023-05-05T10:08:27.673Z,24.73
2023-05-05T10:09:31.692Z,25.42
2023-05-05T10:10:33.822Z,25.65
2023-05-05T10:11:36.088Z,25.45
2023-05-05T10:12:38.452Z,25.12
2023-05-05T10:13:42.131Z,25.28
2023-05-05T10:14:44.344Z,25.63
2023-05-05T10:15:48.569Z,26.06
2023-05-05T10:16:52.328Z,26.75
2023-05-05T10:18:06.964Z,26.99
2023-05-05T10:19:14.300Z,27.53
2023-05-05T10:20:16.549Z,27.52
2023-05-05T10:21:21.452Z,27.20
2023-05-05T10:22:24.182Z,27.10
2023-05-05T10:23:38.698Z,27.34
2023-05-05T10:24:44.788Z,27.46
2023-05-05T10:26:01.827Z,27.71
2023-05-05T10:27:04.866Z,27.42
2023-05-05T10:28:07.097Z,27.74
2023-05-05T10:29:16.772Z,27.27
2023-05-05T10:30:30.155Z,26.82
2023-05-05T10:31:52.908Z,26.81
2023-05-05T10:33:18.285Z,27.54
2023-05-05T10:34:36.247Z,28.05
2023-05-05T10:35:40.847Z,28.68
2023-05-05T10:36:43.025Z,28.41
2023-05-05T10:37:45.777Z,28.63
2023-05-05T10:38:49.375Z,28.41
2023-05-05T10:39:52.605Z,28.13
2023-05-05T10:40:55.286Z,28.24
2023-05-05T10:42:01.831Z,28.58
2023-05-05T10:43:04.407Z,28.41
2023-05-05T10:44:06.852Z,28.78
2023-05-05T10:45:09.570Z,29.15
2023-05-05T10:46:12.019Z,29.34
2023-05-05T10:47:15.166Z,29.70
2023-05-05T10:48:30.285Z,29.66
2023-05-05T10:50:07.588Z,29.52
2023-05-05T10:51:38.564Z,29.41
2023-05-05T10:52:51.394Z,28.93
2023-05-05T10:54:01.864Z,28.48
2023-05-05T10:55:19.436Z,28.21
2023-05-05T10:56:28.358Z,28.15
2023-05-05T10:57:32.479Z,27.39
2023-05-05T10:58:51.303Z,26.63
2023-05-05T10:59:58.081Z,26.60
2023-05-05T11:01:00.310Z,26.60
2023-05-05T11:02:27.236Z,26.94
2023-05-05T11:03:29.567Z,26.51
2023-05-05T11:04:31.832Z,27.29
2023-05-05T11:05:33.968Z,27.17
2023-05-05T11:06:36.140Z,27.52
2023-05-05T11:07:38.871Z,27.03
2023-05-05T11:08:44.679Z,27.07
2023-05-05T11:09:58.169Z,26.72
2023-05-05T11:11:01.338Z,26.27
2023-05-05T11:12:04.939Z,26.43
2023-05-05T11:13:07.121Z,26.59
2023-05-05T11:14:22.535Z,26.64
2023-05-05T11:15:27.557Z,27.36
2023-05-05T11:16:45.925Z,27.97
2023-05-05T11:17:48.381Z,27.90
2023-05-05T11:18:50.793Z,28.61
2023-05-05T11:19:53.473Z,29.07
2023-05-05T11:20:58.269Z,29.17
2023-05-05T11:22:01.769Z,28.37
2023-05-05T11:23:04.042Z,28.39
2023-05-05T11:24:28.168Z,28.98
2023-05-05T11:25:40.916Z,28.62
2023-05-05T11:26:51.280Z,29.07
2023-05-05T11:28:13.561Z,29.14
2023-05-05T11:29:15.679Z,29.06
2023-05-05T11:30:18.732Z,27.95
2023-05-05T11:31:20.950Z,26.07
2023-05-05T11:32:23.175Z,27.33
2023-05-05T11:33:38.646Z,27.58
2023-05-05T11:34:50.049Z,28.11
2023-05-05T11:35:55.099Z,28.67
2023-05-05T11:37:07.858Z,29.11
2023-05-05T11:38:10.082Z,29.08
2023-05-05T11:39:36.617Z,29.15
2023-05-05T11:40:41.921Z,28.59
2023-05-05T11:41:57.864Z,27.70
2023-05-05T11:43:07.245Z,27.12
2023-05-05T11:44:16.962Z,27.50
2023-05-05T11:45:23.390Z,27.41
2023-05-05T11:46:25.527Z,27.56
2023-05-05T11:47:28.724Z,27.95
2023-05-05T11:48:30.894Z,28.24
2023-05-05T11:49:34.846Z,27.70
2023-05-05T11:50:37.026Z,28.08
2023-05-05T11:51:39.499Z,28.05
2023-05-05T11:52:41.596Z,28.14
2023-05-05T11:53:48.579Z,28.83
2023-05-05T11:54:51.438Z,28.81
2023-05-05T11:56:10.004Z,29.02
2023-05-05T11:57:12.167Z,29.29
2023-05-05T11:58:18.647Z,28.64
2023-05-05T11:59:21.048Z,28.51
2023-05-05T12:00:32.778Z,27.85
2023-05-05T12:01:35.799Z,27.63
2023-05-05T12:02:38.122Z,27.94
2023-05-05T12:03:41.235Z,28.52
2023-05-05T12:04:43.586Z,27.65
2023-05-05T12:05:48.742Z,28.51
2023-05-05T12:06:50.956Z,28.48
2023-05-05T12:07:57.506Z,28.22
2023-05-05T12:09:00.958Z,28.41
2023-05-05T12:10:03.174Z,28.58
2023-05-05T12:11:07.869Z,29.53
2023-05-05T12:12:10.085Z,29.61
2023-05-05T12:13:18.796Z,29.78
2023-05-05T12:14:21.814Z,30.25
2023-05-05T12:15:31.174Z,30.03
2023-05-05T12:16:33.456Z,30.07
2023-05-05T12:17:39.939Z,30.18
2023-05-05T12:18:42.570Z,30.06
2023-05-05T12:19:46.224Z,28.86
2023-05-05T12:20:48.491Z,29.31
2023-05-05T12:21:50.688Z,29.20
2023-05-05T12:22:59.760Z,29.09
2023-05-05T12:24:01.984Z,28.89
2023-05-05T12:25:06.623Z,28.04
2023-05-05T12:26:31.842Z,27.99
2023-05-05T12:27:35.493Z,28.28
2023-05-05T12:28:46.458Z,28.57
2023-05-05T12:29:48.792Z,29.60
2023-05-05T12:31:00.134Z,30.23
2023-05-05T12:32:02.426Z,30.32
2023-05-05T12:33:06.312Z,30.96
2023-05-05T12:34:10.037Z,30.79
2023-05-05T12:35:13.597Z,30.13
2023-05-05T12:36:16.449Z,29.90
2023-05-05T12:37:19.248Z,30.12
2023-05-05T12:38:21.395Z,30.42
2023-05-05T12:39:23.523Z,30.70
2023-05-05T12:40:45.116Z,31.25
2023-05-05T12:41:47.485Z,30.39
2023-05-05T12:42:49.974Z,30.38
2023-05-05T12:44:03.353Z,29.79
2023-05-05T12:45:06.963Z,29.83
2023-05-05T12:46:11.159Z,28.24
2023-05-05T12:47:13.833Z,28.38
2023-05-05T12:48:22.477Z,28.60
2023-05-05T12:49:24.684Z,28.74
2023-05-05T12:50:31.591Z,28.51
2023-05-05T12:51:37.052Z,28.68
2023-05-05T12:52:43.932Z,29.16
2023-05-05T12:53:47.890Z,28.95
2023-05-05T12:54:58.038Z,28.87
2023-05-05T12:56:00.234Z,28.99
2023-05-05T12:57:11.257Z,28.72
2023-05-05T12:58:13.531Z,29.26
2023-05-05T12:59:21.428Z,28.49
2023-05-05T13:00:24.218Z,28.96
2023-05-05T13:01:26.641Z,28.87
2023-05-05T13:02:35.313Z,29.11
2023-05-05T13:03:37.749Z,29.51
2023-05-05T13:04:53.352Z,28.57
2023-05-05T13:05:55.585Z,28.82
2023-05-05T13:07:13.712Z,28.95
2023-05-05T13:08:15.809Z,29.17
2023-05-05T13:09:24.692Z,29.42
2023-05-05T13:10:28.096Z,29.30
2023-05-05T13:11:30.306Z,28.54
2023-05-05T13:12:32.396Z,28.32
2023-05-05T13:13:34.624Z,28.02
2023-05-05T13:14:36.781Z,27.34
2023-05-05T13:15:38.903Z,27.02
2023-05-05T13:16:41.519Z,26.35
2023-05-05T13:17:43.677Z,26.63
2023-05-05T13:18:46.523Z,27.01
2023-05-05T13:19:48.687Z,27.02
2023-05-05T13:20:51.354Z,27.01
2023-05-05T13:21:57.511Z,26.06
2023-05-05T13:22:59.631Z,26.28
2023-05-05T13:24:18.972Z,26.53
2023-05-05T13:25:23.306Z,26.84
2023-05-05T13:26:25.999Z,27.39
2023-05-05T13:27:28.098Z,27.79
2023-05-05T13:28:30.215Z,27.88
2023-05-05T13:29:33.342Z,28.31
2023-05-05T13:30:35.526Z,29.02
2023-05-05T13:31:37.719Z,28.90
2023-05-05T13:32:39.889Z,29.17
2023-05-05T13:33:42.042Z,29.82
2023-05-05T13:34:44.249Z,29.64
2023-05-05T13:35:46.408Z,29.42
2023-05-05T13:36:48.596Z,29.64
2023-05-05T13:37:50.757Z,30.74
2023-05-05T13:38:53.490Z,31.19
2023-05-05T13:39:59.287Z,31.59
2023-05-05T13:41:01.625Z,31.08
2023-05-05T13:42:03.881Z,31.02
2023-05-05T13:43:06.047Z,31.11
2023-05-05T13:44:08.118Z,31.70
2023-05-05T13:45:10.766Z,31.76
2023-05-05T13:46:20.163Z,31.14
2023-05-05T13:47:22.724Z,31.83
2023-05-05T13:48:24.992Z,31.85
2023-05-05T13:49:27.204Z,31.35
2023-05-05T13:50:29.344Z,30.39
2023-05-05T13:51:31.546Z,30.41
2023-05-05T13:52:33.714Z,30.47
2023-05-05T13:53:36.073Z,30.66